GEC2PW EDDP-EDDF
Flight info
| Callsign | GEC2PW |
|---|---|
| Flight time | 0h 51m |
| Altitude | 30000 |
| Route | ORTAG5E/08R ORTAG T177 ODIPI T157 KERAX KERA5A EDDF/25R |
| Aircraft | A310/M-SE1IJ2V/S |
Departure
| Time | 2026-05-07 18:43 |
|---|---|
| Airport | Leipzig/Halle Airport (EDDP) |
Arrival
| Time | 2026-05-07 19:35 |
|---|---|
| Airport | Frankfurt Main Airport (EDDF) |
| Time | Latitude | Longitude | Altitude | Speed | Heading |
|---|---|---|---|---|---|
| 2026-05-07 17:51 | 51.40886 | 12.24347 | 466 ft | 0 kts | 84° |
| 2026-05-07 18:32 | 51.40884 | 12.24329 | 466 ft | 2 kts | 84° |
| 2026-05-07 18:32 | 51.40883 | 12.24302 | 468 ft | 2 kts | 84° |
| 2026-05-07 18:33 | 51.40881 | 12.24275 | 466 ft | 2 kts | 69° |
| 2026-05-07 18:33 | 51.40872 | 12.24251 | 466 ft | 2 kts | 39° |
| 2026-05-07 18:33 | 51.40857 | 12.24238 | 465 ft | 2 kts | 9° |
| 2026-05-07 18:33 | 51.40851 | 12.24236 | 465 ft | 0 kts | 356° |
| 2026-05-07 18:34 | 51.40880 | 12.24233 | 468 ft | 12 kts | 356° |
| 2026-05-07 18:35 | 51.41009 | 12.24217 | 470 ft | 23 kts | 352° |
| 2026-05-07 18:35 | 51.41068 | 12.24055 | 470 ft | 17 kts | 269° |
| 2026-05-07 18:35 | 51.41062 | 12.23879 | 469 ft | 15 kts | 267° |
| 2026-05-07 18:35 | 51.41055 | 12.23728 | 476 ft | 12 kts | 265° |
| 2026-05-07 18:36 | 51.41047 | 12.23572 | 474 ft | 19 kts | 266° |
| 2026-05-07 18:36 | 51.41037 | 12.23306 | 471 ft | 25 kts | 268° |
| 2026-05-07 18:36 | 51.41021 | 12.23021 | 471 ft | 29 kts | 266° |
| 2026-05-07 18:36 | 51.41003 | 12.22646 | 467 ft | 38 kts | 265° |
| 2026-05-07 18:37 | 51.40995 | 12.22452 | 463 ft | 2 kts | 267° |
| 2026-05-07 18:37 | 51.40994 | 12.22427 | 463 ft | 3 kts | 266° |
| 2026-05-07 18:37 | 51.41023 | 12.22327 | 463 ft | 18 kts | 333° |
| 2026-05-07 18:37 | 51.41066 | 12.22102 | 462 ft | 29 kts | 265° |
| 2026-05-07 18:38 | 51.41052 | 12.21776 | 464 ft | 28 kts | 266° |
| 2026-05-07 18:38 | 51.41036 | 12.21460 | 458 ft | 30 kts | 266° |
| 2026-05-07 18:38 | 51.41020 | 12.21106 | 451 ft | 34 kts | 265° |
| 2026-05-07 18:38 | 51.41003 | 12.20767 | 434 ft | 21 kts | 266° |
| 2026-05-07 18:39 | 51.41000 | 12.20680 | 433 ft | 0 kts | 266° |
| 2026-05-07 18:39 | 51.40999 | 12.20652 | 434 ft | 10 kts | 266° |
| 2026-05-07 18:40 | 51.41006 | 12.20504 | 432 ft | 11 kts | 310° |
| 2026-05-07 18:40 | 51.41018 | 12.20493 | 431 ft | 0 kts | 335° |
| 2026-05-07 18:41 | 51.41021 | 12.20492 | 432 ft | 2 kts | 339° |
| 2026-05-07 18:41 | 51.41082 | 12.20497 | 443 ft | 14 kts | 13° |
| 2026-05-07 18:41 | 51.41155 | 12.20544 | 438 ft | 10 kts | 50° |
| 2026-05-07 18:41 | 51.41165 | 12.20596 | 433 ft | 0 kts | 81° |
| 2026-05-07 18:43 | 51.41178 | 12.20866 | 448 ft | 67 kts | 86° |
| 2026-05-07 18:43 | 51.41239 | 12.22094 | 462 ft | 152 kts | 86° |
| 2026-05-07 18:43 | 51.41315 | 12.24019 | 916 ft | 188 kts | 85° |
| 2026-05-07 18:43 | 51.41415 | 12.26239 | 1185 ft | 185 kts | 82° |
| 2026-05-07 18:44 | 51.41540 | 12.28161 | 1743 ft | 177 kts | 83° |
| 2026-05-07 18:44 | 51.41670 | 12.30221 | 2683 ft | 193 kts | 83° |
| 2026-05-07 18:44 | 51.41817 | 12.32473 | 3603 ft | 209 kts | 83° |
| 2026-05-07 18:44 | 51.41927 | 12.34729 | 5050 ft | 203 kts | 85° |
| 2026-05-07 18:45 | 51.42105 | 12.37024 | 6134 ft | 217 kts | 70° |
| 2026-05-07 18:45 | 51.43021 | 12.38892 | 6593 ft | 217 kts | 34° |
| 2026-05-07 18:45 | 51.44386 | 12.39927 | 6833 ft | 219 kts | 18° |
| 2026-05-07 18:45 | 51.45945 | 12.40451 | 7596 ft | 239 kts | 7° |
| 2026-05-07 18:46 | 51.47633 | 12.40595 | 8836 ft | 253 kts | 360° |
| 2026-05-07 18:46 | 51.49423 | 12.40412 | 10208 ft | 262 kts | 354° |
| 2026-05-07 18:46 | 51.51250 | 12.39990 | 11565 ft | 269 kts | 351° |
| 2026-05-07 18:46 | 51.53104 | 12.39411 | 12932 ft | 275 kts | 348° |
| 2026-05-07 18:47 | 51.54994 | 12.38724 | 14243 ft | 281 kts | 346° |
| 2026-05-07 18:47 | 51.56784 | 12.37351 | 15198 ft | 299 kts | 321° |
| 2026-05-07 18:47 | 51.58034 | 12.34557 | 15938 ft | 323 kts | 292° |
| 2026-05-07 18:47 | 51.58657 | 12.30974 | 16787 ft | 341 kts | 284° |
| 2026-05-07 18:48 | 51.59032 | 12.28436 | 17400 ft | 350 kts | 285° |
| 2026-05-07 18:48 | 51.59680 | 12.24593 | 18339 ft | 362 kts | 288° |
| 2026-05-07 18:48 | 51.60443 | 12.20672 | 19145 ft | 373 kts | 290° |
| 2026-05-07 18:48 | 51.61685 | 12.16980 | 19946 ft | 381 kts | 309° |
| 2026-05-07 18:49 | 51.63647 | 12.14035 | 20542 ft | 395 kts | 327° |
| 2026-05-07 18:49 | 51.66194 | 12.12214 | 21064 ft | 409 kts | 346° |
| 2026-05-07 18:49 | 51.69058 | 12.11872 | 21743 ft | 419 kts | 5° |
| 2026-05-07 18:49 | 51.71897 | 12.13056 | 22560 ft | 426 kts | 18° |
| 2026-05-07 18:50 | 51.74801 | 12.14014 | 23349 ft | 431 kts | 2° |
| 2026-05-07 18:50 | 51.77775 | 12.13335 | 23723 ft | 434 kts | 342° |
| 2026-05-07 18:50 | 51.80418 | 12.11010 | 23866 ft | 436 kts | 321° |
| 2026-05-07 18:50 | 51.82363 | 12.07356 | 23968 ft | 438 kts | 301° |
| 2026-05-07 18:51 | 51.83424 | 12.02739 | 23996 ft | 441 kts | 282° |
| 2026-05-07 18:51 | 51.83711 | 11.97785 | 24002 ft | 443 kts | 271° |
| 2026-05-07 18:51 | 51.83445 | 11.92823 | 23999 ft | 445 kts | 260° |
| 2026-05-07 18:51 | 51.82486 | 11.88076 | 24002 ft | 447 kts | 246° |
| 2026-05-07 18:52 | 51.80948 | 11.83714 | 24010 ft | 447 kts | 238° |
| 2026-05-07 18:52 | 51.79203 | 11.79454 | 24016 ft | 459 kts | 237° |
| 2026-05-07 18:52 | 51.77428 | 11.75118 | 24027 ft | 464 kts | 238° |
| 2026-05-07 18:52 | 51.75693 | 11.70707 | 24028 ft | 465 kts | 239° |
| 2026-05-07 18:53 | 51.73992 | 11.66267 | 24028 ft | 466 kts | 239° |
| 2026-05-07 18:53 | 51.72296 | 11.61813 | 24027 ft | 465 kts | 239° |
| 2026-05-07 18:53 | 51.70604 | 11.57366 | 24027 ft | 465 kts | 239° |
| 2026-05-07 18:53 | 51.68914 | 11.52925 | 24028 ft | 465 kts | 239° |
| 2026-05-07 18:54 | 51.67203 | 11.48502 | 24024 ft | 465 kts | 239° |
| 2026-05-07 18:54 | 51.65505 | 11.44081 | 24025 ft | 465 kts | 239° |
| 2026-05-07 18:54 | 51.63788 | 11.39670 | 24021 ft | 464 kts | 239° |
| 2026-05-07 18:54 | 51.62083 | 11.35248 | 24023 ft | 464 kts | 239° |
| 2026-05-07 18:55 | 51.60370 | 11.30855 | 24020 ft | 464 kts | 239° |
| 2026-05-07 18:55 | 51.58669 | 11.26448 | 24015 ft | 464 kts | 239° |
| 2026-05-07 18:55 | 51.56947 | 11.22062 | 24018 ft | 463 kts | 238° |
| 2026-05-07 18:55 | 51.55244 | 11.17667 | 24017 ft | 463 kts | 239° |
| 2026-05-07 18:56 | 51.53530 | 11.13285 | 24018 ft | 463 kts | 238° |
| 2026-05-07 18:56 | 51.51808 | 11.08913 | 24014 ft | 463 kts | 239° |
| 2026-05-07 18:56 | 51.50099 | 11.04539 | 24014 ft | 463 kts | 238° |
| 2026-05-07 18:56 | 51.48386 | 11.00174 | 24018 ft | 462 kts | 238° |
| 2026-05-07 18:57 | 51.46659 | 10.95902 | 23308 ft | 453 kts | 234° |
| 2026-05-07 18:57 | 51.44594 | 10.92117 | 22575 ft | 448 kts | 226° |
| 2026-05-07 18:57 | 51.42370 | 10.88601 | 22299 ft | 450 kts | 225° |
| 2026-05-07 18:57 | 51.40142 | 10.85075 | 22143 ft | 451 kts | 226° |
| 2026-05-07 18:58 | 51.37951 | 10.81491 | 22028 ft | 450 kts | 227° |
| 2026-05-07 18:58 | 51.35806 | 10.77913 | 22000 ft | 434 kts | 227° |
| 2026-05-07 18:58 | 51.33786 | 10.74535 | 21995 ft | 408 kts | 227° |
| 2026-05-07 18:58 | 51.31846 | 10.71293 | 22005 ft | 404 kts | 227° |
| 2026-05-07 18:59 | 51.29903 | 10.68047 | 22006 ft | 404 kts | 227° |
| 2026-05-07 18:59 | 51.27984 | 10.64844 | 21996 ft | 404 kts | 227° |
| 2026-05-07 18:59 | 51.26046 | 10.61610 | 22002 ft | 404 kts | 227° |
| 2026-05-07 18:59 | 51.24105 | 10.58375 | 22002 ft | 404 kts | 227° |
| 2026-05-07 19:00 | 51.22152 | 10.55155 | 22004 ft | 404 kts | 227° |
| 2026-05-07 19:00 | 51.20200 | 10.51927 | 22001 ft | 404 kts | 227° |
| 2026-05-07 19:00 | 51.18245 | 10.48713 | 22001 ft | 404 kts | 226° |
| 2026-05-07 19:00 | 51.16295 | 10.45490 | 22001 ft | 404 kts | 227° |
| 2026-05-07 19:01 | 51.14340 | 10.42279 | 22055 ft | 404 kts | 226° |
| 2026-05-07 19:01 | 51.12385 | 10.39062 | 22090 ft | 404 kts | 227° |
| 2026-05-07 19:01 | 51.10427 | 10.35856 | 22078 ft | 404 kts | 226° |
| 2026-05-07 19:01 | 51.08471 | 10.32638 | 22092 ft | 404 kts | 227° |
| 2026-05-07 19:02 | 51.06507 | 10.29441 | 22083 ft | 404 kts | 226° |
| 2026-05-07 19:02 | 51.04543 | 10.26241 | 22096 ft | 404 kts | 226° |
| 2026-05-07 19:02 | 51.02589 | 10.23028 | 22088 ft | 404 kts | 229° |
| 2026-05-07 19:02 | 51.01109 | 10.19280 | 22090 ft | 402 kts | 246° |
| 2026-05-07 19:03 | 50.99970 | 10.15220 | 22103 ft | 402 kts | 246° |
| 2026-05-07 19:03 | 50.98838 | 10.11146 | 22099 ft | 402 kts | 246° |
| 2026-05-07 19:03 | 50.97644 | 10.07137 | 22084 ft | 403 kts | 239° |
| 2026-05-07 19:03 | 50.95829 | 10.03754 | 22091 ft | 404 kts | 224° |
| 2026-05-07 19:04 | 50.93739 | 10.00834 | 21558 ft | 398 kts | 221° |
| 2026-05-07 19:04 | 50.91641 | 9.98004 | 21033 ft | 395 kts | 222° |
| 2026-05-07 19:04 | 50.89579 | 9.95117 | 20749 ft | 396 kts | 223° |
| 2026-05-07 19:04 | 50.87549 | 9.92167 | 20512 ft | 396 kts | 224° |
| 2026-05-07 19:05 | 50.85526 | 9.89195 | 20230 ft | 396 kts | 224° |
| 2026-05-07 19:05 | 50.83510 | 9.86231 | 19936 ft | 395 kts | 224° |
| 2026-05-07 19:05 | 50.81497 | 9.83275 | 19633 ft | 394 kts | 224° |
| 2026-05-07 19:05 | 50.79490 | 9.80333 | 19349 ft | 393 kts | 224° |
| 2026-05-07 19:06 | 50.77493 | 9.77409 | 19061 ft | 391 kts | 224° |
| 2026-05-07 19:06 | 50.73505 | 9.71588 | 18485 ft | 389 kts | 224° |
| 2026-05-07 19:06 | 50.71546 | 9.68735 | 18175 ft | 388 kts | 224° |
| 2026-05-07 19:07 | 50.69530 | 9.65798 | 17544 ft | 397 kts | 224° |
| 2026-05-07 19:07 | 50.67486 | 9.62823 | 16179 ft | 402 kts | 224° |
| 2026-05-07 19:07 | 50.65423 | 9.59822 | 14942 ft | 404 kts | 224° |
| 2026-05-07 19:07 | 50.63371 | 9.56840 | 14086 ft | 397 kts | 224° |
| 2026-05-07 19:08 | 50.61346 | 9.53900 | 13594 ft | 396 kts | 224° |
| 2026-05-07 19:08 | 50.59325 | 9.50962 | 13325 ft | 394 kts | 224° |
| 2026-05-07 19:08 | 50.57355 | 9.48098 | 13189 ft | 377 kts | 224° |
| 2026-05-07 19:08 | 50.55454 | 9.45344 | 13075 ft | 366 kts | 223° |
| 2026-05-07 19:09 | 50.53603 | 9.42670 | 13084 ft | 360 kts | 224° |
| 2026-05-07 19:09 | 50.51758 | 9.40019 | 13083 ft | 359 kts | 223° |
| 2026-05-07 19:09 | 50.49920 | 9.37372 | 13079 ft | 358 kts | 224° |
| 2026-05-07 19:09 | 50.48259 | 9.34494 | 13059 ft | 356 kts | 239° |
| 2026-05-07 19:10 | 50.47493 | 9.30849 | 13052 ft | 354 kts | 265° |
| 2026-05-07 19:10 | 50.47550 | 9.26991 | 13092 ft | 354 kts | 269° |
| 2026-05-07 19:10 | 50.47065 | 9.23216 | 13085 ft | 355 kts | 250° |
| 2026-05-07 19:10 | 50.45835 | 9.19865 | 13076 ft | 357 kts | 232° |
| 2026-05-07 19:11 | 50.43971 | 9.17296 | 13073 ft | 359 kts | 213° |
| 2026-05-07 19:11 | 50.41654 | 9.15845 | 13086 ft | 361 kts | 195° |
| 2026-05-07 19:11 | 50.39190 | 9.15062 | 13084 ft | 361 kts | 191° |
| 2026-05-07 19:11 | 50.36709 | 9.14381 | 13078 ft | 361 kts | 191° |
| 2026-05-07 19:12 | 50.34238 | 9.13655 | 13072 ft | 361 kts | 192° |
| 2026-05-07 19:12 | 50.31773 | 9.12882 | 13073 ft | 361 kts | 193° |
| 2026-05-07 19:12 | 50.29316 | 9.12067 | 13070 ft | 360 kts | 196° |
| 2026-05-07 19:12 | 50.27113 | 9.10303 | 13045 ft | 355 kts | 221° |
| 2026-05-07 19:13 | 50.25681 | 9.07340 | 13023 ft | 334 kts | 247° |
| 2026-05-07 19:13 | 50.24967 | 9.03908 | 13073 ft | 331 kts | 255° |
| 2026-05-07 19:13 | 50.24356 | 9.00445 | 13081 ft | 330 kts | 254° |
| 2026-05-07 19:13 | 50.23679 | 8.97017 | 13072 ft | 330 kts | 252° |
| 2026-05-07 19:14 | 50.22945 | 8.93624 | 13071 ft | 330 kts | 251° |
| 2026-05-07 19:14 | 50.22170 | 8.90250 | 13071 ft | 330 kts | 251° |
| 2026-05-07 19:14 | 50.21386 | 8.86884 | 13069 ft | 330 kts | 250° |
| 2026-05-07 19:14 | 50.20599 | 8.83516 | 13072 ft | 330 kts | 250° |
| 2026-05-07 19:15 | 50.19814 | 8.80155 | 13074 ft | 330 kts | 250° |
| 2026-05-07 19:15 | 50.19028 | 8.76792 | 13072 ft | 330 kts | 250° |
| 2026-05-07 19:15 | 50.18243 | 8.73429 | 13072 ft | 330 kts | 250° |
| 2026-05-07 19:15 | 50.17453 | 8.70069 | 13076 ft | 330 kts | 250° |
| 2026-05-07 19:16 | 50.16655 | 8.66720 | 13074 ft | 329 kts | 250° |
| 2026-05-07 19:16 | 50.15863 | 8.63365 | 13074 ft | 330 kts | 250° |
| 2026-05-07 19:16 | 50.15065 | 8.60014 | 13075 ft | 330 kts | 250° |
| 2026-05-07 19:16 | 50.14264 | 8.56667 | 13074 ft | 330 kts | 250° |
| 2026-05-07 19:17 | 50.13468 | 8.53317 | 13076 ft | 330 kts | 250° |
| 2026-05-07 19:17 | 50.12666 | 8.49970 | 13074 ft | 330 kts | 250° |
| 2026-05-07 19:17 | 50.12061 | 8.47446 | 13075 ft | 330 kts | 250° |
| 2026-05-07 19:17 | 50.11246 | 8.44057 | 13064 ft | 330 kts | 250° |
| 2026-05-07 19:18 | 50.10426 | 8.40724 | 13035 ft | 330 kts | 249° |
| 2026-05-07 19:18 | 50.09604 | 8.37401 | 12818 ft | 326 kts | 249° |
| 2026-05-07 19:18 | 50.08796 | 8.34106 | 12035 ft | 326 kts | 250° |
| 2026-05-07 19:18 | 50.08033 | 8.30937 | 11372 ft | 323 kts | 250° |
| 2026-05-07 19:19 | 50.07242 | 8.27688 | 10683 ft | 320 kts | 250° |
| 2026-05-07 19:19 | 50.06473 | 8.24522 | 10020 ft | 318 kts | 249° |
| 2026-05-07 19:19 | 50.05709 | 8.21355 | 9685 ft | 304 kts | 250° |
| 2026-05-07 19:19 | 50.04981 | 8.18377 | 9627 ft | 283 kts | 250° |
| 2026-05-07 19:20 | 50.04308 | 8.15586 | 9389 ft | 271 kts | 250° |
| 2026-05-07 19:20 | 50.03643 | 8.12857 | 8917 ft | 269 kts | 250° |
| 2026-05-07 19:20 | 50.02984 | 8.10160 | 8462 ft | 266 kts | 249° |
| 2026-05-07 19:20 | 50.02317 | 8.07481 | 7995 ft | 264 kts | 250° |
| 2026-05-07 19:21 | 50.01671 | 8.04820 | 7543 ft | 262 kts | 250° |
| 2026-05-07 19:21 | 50.00762 | 8.02398 | 7088 ft | 261 kts | 226° |
| 2026-05-07 19:21 | 49.99245 | 8.00941 | 6813 ft | 255 kts | 198° |
| 2026-05-07 19:21 | 49.97501 | 8.00780 | 6455 ft | 253 kts | 170° |
| 2026-05-07 19:22 | 49.95811 | 8.01506 | 6019 ft | 253 kts | 158° |
| 2026-05-07 19:22 | 49.94420 | 8.03113 | 5597 ft | 251 kts | 128° |
| 2026-05-07 19:22 | 49.93671 | 8.05535 | 5191 ft | 249 kts | 106° |
| 2026-05-07 19:22 | 49.93218 | 8.08100 | 5057 ft | 246 kts | 102° |
| 2026-05-07 19:23 | 49.93270 | 8.10691 | 4983 ft | 240 kts | 67° |
| 2026-05-07 19:23 | 49.94255 | 8.12774 | 5000 ft | 242 kts | 45° |
| 2026-05-07 19:23 | 49.95651 | 8.14165 | 4975 ft | 239 kts | 14° |
| 2026-05-07 19:23 | 49.97265 | 8.14829 | 4980 ft | 242 kts | 23° |
| 2026-05-07 19:24 | 49.98598 | 8.16496 | 4987 ft | 262 kts | 52° |
| 2026-05-07 19:24 | 49.99628 | 8.18839 | 4976 ft | 263 kts | 45° |
| 2026-05-07 19:24 | 50.01163 | 8.20367 | 4979 ft | 279 kts | 18° |
| 2026-05-07 19:24 | 50.03098 | 8.20685 | 4980 ft | 282 kts | 353° |
| 2026-05-07 19:25 | 50.04928 | 8.19653 | 4973 ft | 282 kts | 327° |
| 2026-05-07 19:25 | 50.06286 | 8.17475 | 4957 ft | 283 kts | 302° |
| 2026-05-07 19:25 | 50.06938 | 8.14613 | 4573 ft | 282 kts | 278° |
| 2026-05-07 19:25 | 50.06758 | 8.11606 | 4187 ft | 280 kts | 255° |
| 2026-05-07 19:26 | 50.05838 | 8.08979 | 4060 ft | 284 kts | 229° |
| 2026-05-07 19:26 | 50.04251 | 8.07163 | 3982 ft | 286 kts | 207° |
| 2026-05-07 19:26 | 50.02436 | 8.05847 | 3996 ft | 288 kts | 204° |
| 2026-05-07 19:26 | 50.00629 | 8.04601 | 3977 ft | 276 kts | 204° |
| 2026-05-07 19:27 | 49.98943 | 8.03445 | 3955 ft | 254 kts | 204° |
| 2026-05-07 19:27 | 49.97383 | 8.02380 | 3927 ft | 236 kts | 202° |
| 2026-05-07 19:27 | 49.95832 | 8.02023 | 3895 ft | 223 kts | 170° |
| 2026-05-07 19:27 | 49.94473 | 8.02970 | 3922 ft | 223 kts | 138° |
| 2026-05-07 19:28 | 49.93632 | 8.04940 | 3958 ft | 220 kts | 104° |
| 2026-05-07 19:28 | 49.93595 | 8.07279 | 4068 ft | 216 kts | 83° |
| 2026-05-07 19:28 | 49.93832 | 8.09639 | 4226 ft | 220 kts | 72° |
| 2026-05-07 19:28 | 49.94436 | 8.11837 | 4262 ft | 221 kts | 64° |
| 2026-05-07 19:29 | 49.95080 | 8.14004 | 4235 ft | 225 kts | 64° |
| 2026-05-07 19:29 | 49.95721 | 8.16274 | 3788 ft | 231 kts | 66° |
| 2026-05-07 19:29 | 49.96317 | 8.18535 | 3587 ft | 222 kts | 68° |
| 2026-05-07 19:29 | 49.96791 | 8.20642 | 3836 ft | 192 kts | 71° |
| 2026-05-07 19:30 | 49.97218 | 8.22753 | 3846 ft | 215 kts | 71° |
| 2026-05-07 19:30 | 49.97686 | 8.24912 | 3579 ft | 203 kts | 69° |
| 2026-05-07 19:30 | 49.98183 | 8.26862 | 3269 ft | 191 kts | 66° |
| 2026-05-07 19:30 | 49.98683 | 8.28658 | 3116 ft | 172 kts | 64° |
| 2026-05-07 19:31 | 49.99158 | 8.30320 | 2886 ft | 163 kts | 66° |
| 2026-05-07 19:31 | 49.99554 | 8.31940 | 2524 ft | 156 kts | 71° |
| 2026-05-07 19:31 | 49.99866 | 8.33522 | 2331 ft | 154 kts | 72° |
| 2026-05-07 19:31 | 50.00195 | 8.35085 | 2134 ft | 150 kts | 70° |
| 2026-05-07 19:32 | 50.00432 | 8.36103 | 2026 ft | 151 kts | 69° |
| 2026-05-07 19:32 | 50.00798 | 8.37618 | 1888 ft | 149 kts | 68° |
| 2026-05-07 19:32 | 50.01190 | 8.39112 | 1742 ft | 151 kts | 68° |
| 2026-05-07 19:32 | 50.01543 | 8.40640 | 1443 ft | 149 kts | 71° |
| 2026-05-07 19:33 | 50.01878 | 8.42160 | 1191 ft | 147 kts | 70° |
| 2026-05-07 19:33 | 50.02251 | 8.43650 | 985 ft | 148 kts | 67° |
| 2026-05-07 19:33 | 50.02625 | 8.45121 | 844 ft | 144 kts | 71° |
| 2026-05-07 19:33 | 50.02935 | 8.46560 | 657 ft | 136 kts | 69° |
| 2026-05-07 19:34 | 50.03270 | 8.47909 | 477 ft | 134 kts | 69° |
| 2026-05-07 19:34 | 50.03601 | 8.49272 | 375 ft | 133 kts | 69° |
| 2026-05-07 19:34 | 50.03906 | 8.50542 | 329 ft | 116 kts | 69° |
| 2026-05-07 19:34 | 50.04159 | 8.51581 | 357 ft | 89 kts | 69° |
| 2026-05-07 19:35 | 50.04349 | 8.52372 | 358 ft | 67 kts | 69° |
| 2026-05-07 19:35 | 50.04487 | 8.52941 | 363 ft | 46 kts | 70° |